sensor_id;sensor_type;location;lat;lon;timestamp;temperature;humidity
32614;DHT22;19031;51.400;6.770;2024-02-14T00:01:31;8.90;99.90
32614;DHT22;19031;51.400;6.770;2024-02-14T00:03:56;9.00;99.90
32614;DHT22;19031;51.400;6.770;2024-02-14T00:06:22;8.90;99.90
32614;DHT22;19031;51.400;6.770;2024-02-14T00:08:49;8.90;99.90
32614;DHT22;19031;51.400;6.770;2024-02-14T00:11:14;8.80;99.90
32614;DHT22;19031;51.400;6.770;2024-02-14T00:13:40;8.80;99.90
32614;DHT22;19031;51.400;6.770;2024-02-14T00:16:06;8.70;99.90
32614;DHT22;19031;51.400;6.770;2024-02-14T00:18:31;8.60;99.90
32614;DHT22;19031;51.400;6.770;2024-02-14T00:20:57;8.60;99.90
32614;DHT22;19031;51.400;6.770;2024-02-14T00:23:23;8.50;99.90
32614;DHT22;19031;51.400;6.770;2024-02-14T00:25:48;8.50;99.90
32614;DHT22;19031;51.400;6.770;2024-02-14T00:28:14;8.50;99.90
32614;DHT22;19031;51.400;6.770;2024-02-14T00:30:39;8.40;99.90
32614;DHT22;19031;51.400;6.770;2024-02-14T00:33:05;8.50;99.90
32614;DHT22;19031;51.400;6.770;2024-02-14T00:35:30;8.40;99.90
32614;DHT22;19031;51.400;6.770;2024-02-14T00:37:56;8.40;99.90
32614;DHT22;19031;51.400;6.770;2024-02-14T00:40:22;8.40;99.90
32614;DHT22;19031;51.400;6.770;2024-02-14T00:42:48;8.40;99.90
32614;DHT22;19031;51.400;6.770;2024-02-14T00:45:13;8.40;99.90
32614;DHT22;19031;51.400;6.770;2024-02-14T00:47:39;8.40;99.90
32614;DHT22;19031;51.400;6.770;2024-02-14T00:50:05;8.40;99.90
32614;DHT22;19031;51.400;6.770;2024-02-14T00:52:30;8.40;99.90
32614;DHT22;19031;51.400;6.770;2024-02-14T00:54:56;8.40;99.90
32614;DHT22;19031;51.400;6.770;2024-02-14T00:57:22;8.30;99.90
32614;DHT22;19031;51.400;6.770;2024-02-14T00:59:52;8.30;99.90
32614;DHT22;19031;51.400;6.770;2024-02-14T01:02:18;8.30;99.90
32614;DHT22;19031;51.400;6.770;2024-02-14T01:04:43;8.40;99.90
32614;DHT22;19031;51.400;6.770;2024-02-14T01:07:09;8.30;99.90
32614;DHT22;19031;51.400;6.770;2024-02-14T01:09:34;8.30;99.90
32614;DHT22;19031;51.400;6.770;2024-02-14T01:12:02;8.30;99.90
32614;DHT22;19031;51.400;6.770;2024-02-14T01:14:28;8.30;99.90
32614;DHT22;19031;51.400;6.770;2024-02-14T01:16:53;8.40;99.90
32614;DHT22;19031;51.400;6.770;2024-02-14T01:19:19;8.30;99.90
32614;DHT22;19031;51.400;6.770;2024-02-14T01:21:45;8.30;99.90
32614;DHT22;19031;51.400;6.770;2024-02-14T01:24:14;8.30;99.90
32614;DHT22;19031;51.400;6.770;2024-02-14T01:26:39;8.30;99.90
32614;DHT22;19031;51.400;6.770;2024-02-14T01:29:06;8.30;99.90
32614;DHT22;19031;51.400;6.770;2024-02-14T01:31:32;8.40;99.90
32614;DHT22;19031;51.400;6.770;2024-02-14T01:33:58;8.40;99.90
32614;DHT22;19031;51.400;6.770;2024-02-14T01:36:24;8.40;99.90
32614;DHT22;19031;51.400;6.770;2024-02-14T01:38:50;8.40;99.90
32614;DHT22;19031;51.400;6.770;2024-02-14T01:41:15;8.50;99.90
32614;DHT22;19031;51.400;6.770;2024-02-14T01:43:41;8.50;99.90
32614;DHT22;19031;51.400;6.770;2024-02-14T01:46:07;8.60;99.90
32614;DHT22;19031;51.400;6.770;2024-02-14T01:48:36;8.60;99.90
32614;DHT22;19031;51.400;6.770;2024-02-14T01:51:02;8.60;99.90
32614;DHT22;19031;51.400;6.770;2024-02-14T01:53:29;8.60;99.90
32614;DHT22;19031;51.400;6.770;2024-02-14T01:55:57;8.70;99.90
32614;DHT22;19031;51.400;6.770;2024-02-14T01:58:24;8.70;99.90
32614;DHT22;19031;51.400;6.770;2024-02-14T02:00:51;8.60;99.90
32614;DHT22;19031;51.400;6.770;2024-02-14T02:03:21;8.70;99.90
32614;DHT22;19031;51.400;6.770;2024-02-14T02:05:48;8.70;99.90
32614;DHT22;19031;51.400;6.770;2024-02-14T02:08:14;8.80;99.90
32614;DHT22;19031;51.400;6.770;2024-02-14T02:10:40;8.80;99.90
32614;DHT22;19031;51.400;6.770;2024-02-14T02:13:06;8.90;99.90
32614;DHT22;19031;51.400;6.770;2024-02-14T02:15:31;8.90;99.90
32614;DHT22;19031;51.400;6.770;2024-02-14T02:17:57;8.80;99.90
32614;DHT22;19031;51.400;6.770;2024-02-14T02:20:25;8.90;99.90
32614;DHT22;19031;51.400;6.770;2024-02-14T02:22:53;8.90;99.90
32614;DHT22;19031;51.400;6.770;2024-02-14T02:25:18;8.90;99.90
32614;DHT22;19031;51.400;6.770;2024-02-14T02:27:48;8.90;99.90
32614;DHT22;19031;51.400;6.770;2024-02-14T02:30:14;9.00;99.90
32614;DHT22;19031;51.400;6.770;2024-02-14T02:32:40;9.10;99.90
32614;DHT22;19031;51.400;6.770;2024-02-14T02:35:06;9.10;99.90
32614;DHT22;19031;51.400;6.770;2024-02-14T02:37:32;9.00;99.90
32614;DHT22;19031;51.400;6.770;2024-02-14T02:39:58;9.10;99.90
32614;DHT22;19031;51.400;6.770;2024-02-14T02:42:24;9.10;99.90
32614;DHT22;19031;51.400;6.770;2024-02-14T02:44:50;9.10;99.90
32614;DHT22;19031;51.400;6.770;2024-02-14T02:47:16;9.20;99.90
32614;DHT22;19031;51.400;6.770;2024-02-14T02:49:46;9.30;99.90
32614;DHT22;19031;51.400;6.770;2024-02-14T02:52:12;9.20;99.90
32614;DHT22;19031;51.400;6.770;2024-02-14T02:54:38;9.30;99.90
32614;DHT22;19031;51.400;6.770;2024-02-14T02:57:07;9.30;99.90
32614;DHT22;19031;51.400;6.770;2024-02-14T02:59:34;9.30;99.90
32614;DHT22;19031;51.400;6.770;2024-02-14T03:02:00;9.30;99.90
32614;DHT22;19031;51.400;6.770;2024-02-14T03:04:26;9.30;99.90
32614;DHT22;19031;51.400;6.770;2024-02-14T03:06:51;9.30;99.90
32614;DHT22;19031;51.400;6.770;2024-02-14T03:09:17;9.40;99.90
32614;DHT22;19031;51.400;6.770;2024-02-14T03:11:46;9.40;99.90
32614;DHT22;19031;51.400;6.770;2024-02-14T03:14:13;9.30;99.90
32614;DHT22;19031;51.400;6.770;2024-02-14T03:16:39;9.50;99.90
32614;DHT22;19031;51.400;6.770;2024-02-14T03:19:04;9.40;99.90
32614;DHT22;19031;51.400;6.770;2024-02-14T03:21:31;9.40;99.90
32614;DHT22;19031;51.400;6.770;2024-02-14T03:23:58;9.40;99.90
32614;DHT22;19031;51.400;6.770;2024-02-14T03:26:23;9.40;99.90
32614;DHT22;19031;51.400;6.770;2024-02-14T03:28:49;9.50;99.90
32614;DHT22;19031;51.400;6.770;2024-02-14T03:31:15;9.50;99.90
32614;DHT22;19031;51.400;6.770;2024-02-14T03:33:42;9.40;99.90
32614;DHT22;19031;51.400;6.770;2024-02-14T03:36:08;9.50;99.90
32614;DHT22;19031;51.400;6.770;2024-02-14T03:38:33;9.50;99.90
32614;DHT22;19031;51.400;6.770;2024-02-14T03:40:59;9.60;99.90
32614;DHT22;19031;51.400;6.770;2024-02-14T03:43:24;9.50;99.90
32614;DHT22;19031;51.400;6.770;2024-02-14T03:45:50;9.50;99.90
32614;DHT22;19031;51.400;6.770;2024-02-14T03:48:17;9.50;99.90
32614;DHT22;19031;51.400;6.770;2024-02-14T03:50:42;9.60;99.90
32614;DHT22;19031;51.400;6.770;2024-02-14T03:53:08;9.60;99.90
32614;DHT22;19031;51.400;6.770;2024-02-14T03:55:37;9.60;99.90
32614;DHT22;19031;51.400;6.770;2024-02-14T03:58:02;9.60;99.90
32614;DHT22;19031;51.400;6.770;2024-02-14T04:00:28;9.50;99.90
32614;DHT22;19031;51.400;6.770;2024-02-14T04:02:55;9.50;99.90
32614;DHT22;19031;51.400;6.770;2024-02-14T04:05:27;9.60;99.90
32614;DHT22;19031;51.400;6.770;2024-02-14T04:07:54;9.50;99.90
32614;DHT22;19031;51.400;6.770;2024-02-14T04:10:20;9.60;99.90
32614;DHT22;19031;51.400;6.770;2024-02-14T04:12:46;9.70;99.90
32614;DHT22;19031;51.400;6.770;2024-02-14T04:15:14;9.70;99.90
32614;DHT22;19031;51.400;6.770;2024-02-14T04:17:40;9.70;99.90
32614;DHT22;19031;51.400;6.770;2024-02-14T04:20:06;9.60;99.90
32614;DHT22;19031;51.400;6.770;2024-02-14T04:22:31;9.70;99.90
32614;DHT22;19031;51.400;6.770;2024-02-14T04:24:57;9.70;99.90
32614;DHT22;19031;51.400;6.770;2024-02-14T04:27:23;9.70;99.90
32614;DHT22;19031;51.400;6.770;2024-02-14T04:29:48;9.70;99.90
32614;DHT22;19031;51.400;6.770;2024-02-14T04:32:14;9.70;99.90
32614;DHT22;19031;51.400;6.770;2024-02-14T04:34:40;9.80;99.90
32614;DHT22;19031;51.400;6.770;2024-02-14T04:37:07;9.80;99.90
32614;DHT22;19031;51.400;6.770;2024-02-14T04:39:38;9.80;99.90
32614;DHT22;19031;51.400;6.770;2024-02-14T04:42:04;9.80;99.90
32614;DHT22;19031;51.400;6.770;2024-02-14T04:44:30;9.80;99.90
32614;DHT22;19031;51.400;6.770;2024-02-14T04:47:02;9.90;99.90
32614;DHT22;19031;51.400;6.770;2024-02-14T04:49:28;9.90;99.90
32614;DHT22;19031;51.400;6.770;2024-02-14T04:51:57;9.80;99.90
32614;DHT22;19031;51.400;6.770;2024-02-14T04:54:23;9.90;99.90
32614;DHT22;19031;51.400;6.770;2024-02-14T04:56:48;9.90;99.90
32614;DHT22;19031;51.400;6.770;2024-02-14T04:59:14;9.90;99.90
32614;DHT22;19031;51.400;6.770;2024-02-14T05:01:39;9.90;99.90
32614;DHT22;19031;51.400;6.770;2024-02-14T05:04:08;9.90;99.90
32614;DHT22;19031;51.400;6.770;2024-02-14T05:06:34;9.90;99.90
32614;DHT22;19031;51.400;6.770;2024-02-14T05:09:00;9.90;99.90
32614;DHT22;19031;51.400;6.770;2024-02-14T05:11:25;10.00;99.90
32614;DHT22;19031;51.400;6.770;2024-02-14T05:13:51;10.00;99.90
32614;DHT22;19031;51.400;6.770;2024-02-14T05:16:20;10.00;99.90
32614;DHT22;19031;51.400;6.770;2024-02-14T05:18:45;10.00;99.90
32614;DHT22;19031;51.400;6.770;2024-02-14T05:21:11;10.00;99.90
32614;DHT22;19031;51.400;6.770;2024-02-14T05:23:37;9.90;99.90
32614;DHT22;19031;51.400;6.770;2024-02-14T05:26:03;9.80;99.90
32614;DHT22;19031;51.400;6.770;2024-02-14T05:28:29;9.90;99.90
32614;DHT22;19031;51.400;6.770;2024-02-14T05:30:55;9.90;99.90
32614;DHT22;19031;51.400;6.770;2024-02-14T05:33:21;9.90;99.90
32614;DHT22;19031;51.400;6.770;2024-02-14T05:35:51;9.80;99.90
32614;DHT22;19031;51.400;6.770;2024-02-14T05:38:17;9.80;99.90
32614;DHT22;19031;51.400;6.770;2024-02-14T05:40:48;9.80;99.90
32614;DHT22;19031;51.400;6.770;2024-02-14T05:43:14;9.90;99.90
32614;DHT22;19031;51.400;6.770;2024-02-14T05:45:41;9.80;99.90
32614;DHT22;19031;51.400;6.770;2024-02-14T05:48:07;9.90;99.90
32614;DHT22;19031;51.400;6.770;2024-02-14T05:50:33;9.90;99.90
32614;DHT22;19031;51.400;6.770;2024-02-14T05:52:58;9.80;99.90
32614;DHT22;19031;51.400;6.770;2024-02-14T05:55:24;9.80;99.90
32614;DHT22;19031;51.400;6.770;2024-02-14T05:57:51;9.80;99.90
32614;DHT22;19031;51.400;6.770;2024-02-14T06:00:20;9.80;99.90
32614;DHT22;19031;51.400;6.770;2024-02-14T06:02:47;9.80;99.90
32614;DHT22;19031;51.400;6.770;2024-02-14T06:05:13;9.80;99.90
32614;DHT22;19031;51.400;6.770;2024-02-14T06:07:39;9.80;99.90
32614;DHT22;19031;51.400;6.770;2024-02-14T06:10:06;9.80;99.90
32614;DHT22;19031;51.400;6.770;2024-02-14T06:12:33;9.80;99.90
32614;DHT22;19031;51.400;6.770;2024-02-14T06:14:58;9.80;99.90
32614;DHT22;19031;51.400;6.770;2024-02-14T06:17:24;9.80;99.90
32614;DHT22;19031;51.400;6.770;2024-02-14T06:19:52;9.80;99.90
32614;DHT22;19031;51.400;6.770;2024-02-14T06:22:17;9.80;99.90
32614;DHT22;19031;51.400;6.770;2024-02-14T06:24:43;9.90;99.90
32614;DHT22;19031;51.400;6.770;2024-02-14T06:27:08;9.90;99.90
32614;DHT22;19031;51.400;6.770;2024-02-14T06:29:34;9.80;99.90
32614;DHT22;19031;51.400;6.770;2024-02-14T06:32:00;9.90;99.90
32614;DHT22;19031;51.400;6.770;2024-02-14T06:34:26;9.80;99.90
32614;DHT22;19031;51.400;6.770;2024-02-14T06:36:53;9.90;99.90
32614;DHT22;19031;51.400;6.770;2024-02-14T06:39:19;9.80;99.90
32614;DHT22;19031;51.400;6.770;2024-02-14T06:41:46;9.90;99.90
32614;DHT22;19031;51.400;6.770;2024-02-14T06:44:13;9.90;99.90
32614;DHT22;19031;51.400;6.770;2024-02-14T06:46:39;9.80;99.90
32614;DHT22;19031;51.400;6.770;2024-02-14T06:49:04;9.90;99.90
32614;DHT22;19031;51.400;6.770;2024-02-14T06:51:30;9.80;99.90
32614;DHT22;19031;51.400;6.770;2024-02-14T06:53:56;9.90;99.90
32614;DHT22;19031;51.400;6.770;2024-02-14T06:56:22;9.90;99.90
32614;DHT22;19031;51.400;6.770;2024-02-14T06:58:47;10.00;99.90
32614;DHT22;19031;51.400;6.770;2024-02-14T07:01:18;9.90;99.90
32614;DHT22;19031;51.400;6.770;2024-02-14T07:03:47;9.90;99.90
32614;DHT22;19031;51.400;6.770;2024-02-14T07:06:13;10.00;99.90
32614;DHT22;19031;51.400;6.770;2024-02-14T07:08:41;9.90;99.90
32614;DHT22;19031;51.400;6.770;2024-02-14T07:11:06;9.90;99.90
32614;DHT22;19031;51.400;6.770;2024-02-14T07:13:32;10.00;99.90
32614;DHT22;19031;51.400;6.770;2024-02-14T07:15:57;10.00;99.90
32614;DHT22;19031;51.400;6.770;2024-02-14T07:18:23;10.00;99.90
32614;DHT22;19031;51.400;6.770;2024-02-14T07:20:48;10.00;99.90
32614;DHT22;19031;51.400;6.770;2024-02-14T07:23:14;10.00;99.90
32614;DHT22;19031;51.400;6.770;2024-02-14T07:25:39;10.00;99.90
32614;DHT22;19031;51.400;6.770;2024-02-14T07:28:05;10.10;99.90
32614;DHT22;19031;51.400;6.770;2024-02-14T07:30:31;10.00;99.90
32614;DHT22;19031;51.400;6.770;2024-02-14T07:32:56;9.90;99.90
32614;DHT22;19031;51.400;6.770;2024-02-14T07:35:22;10.00;99.90
32614;DHT22;19031;51.400;6.770;2024-02-14T07:37:48;10.10;99.90
32614;DHT22;19031;51.400;6.770;2024-02-14T07:40:14;10.10;99.90
32614;DHT22;19031;51.400;6.770;2024-02-14T07:42:39;10.10;99.90
32614;DHT22;19031;51.400;6.770;2024-02-14T07:45:05;10.10;99.90
32614;DHT22;19031;51.400;6.770;2024-02-14T07:47:31;10.20;99.90
32614;DHT22;19031;51.400;6.770;2024-02-14T07:49:56;10.20;99.90
32614;DHT22;19031;51.400;6.770;2024-02-14T07:52:22;10.20;99.90
32614;DHT22;19031;51.400;6.770;2024-02-14T07:54:52;10.10;99.90
32614;DHT22;19031;51.400;6.770;2024-02-14T07:57:18;10.20;99.90
32614;DHT22;19031;51.400;6.770;2024-02-14T07:59:43;10.10;99.90
32614;DHT22;19031;51.400;6.770;2024-02-14T08:02:09;10.20;99.90
32614;DHT22;19031;51.400;6.770;2024-02-14T08:04:35;10.20;99.90
32614;DHT22;19031;51.400;6.770;2024-02-14T08:07:00;10.30;99.90
32614;DHT22;19031;51.400;6.770;2024-02-14T08:09:26;10.30;99.90
32614;DHT22;19031;51.400;6.770;2024-02-14T08:11:51;10.40;99.90
32614;DHT22;19031;51.400;6.770;2024-02-14T08:14:18;10.40;99.90
32614;DHT22;19031;51.400;6.770;2024-02-14T08:16:44;10.50;99.90
32614;DHT22;19031;51.400;6.770;2024-02-14T08:19:09;10.40;99.90
32614;DHT22;19031;51.400;6.770;2024-02-14T08:21:35;10.50;99.90
32614;DHT22;19031;51.400;6.770;2024-02-14T08:24:01;10.50;99.90
32614;DHT22;19031;51.400;6.770;2024-02-14T08:26:27;10.60;99.90
32614;DHT22;19031;51.400;6.770;2024-02-14T08:28:52;10.60;99.90
32614;DHT22;19031;51.400;6.770;2024-02-14T08:31:19;10.60;99.90
32614;DHT22;19031;51.400;6.770;2024-02-14T08:33:45;10.60;99.90
32614;DHT22;19031;51.400;6.770;2024-02-14T08:36:10;10.60;99.90
32614;DHT22;19031;51.400;6.770;2024-02-14T08:38:36;10.70;99.90
32614;DHT22;19031;51.400;6.770;2024-02-14T08:41:02;10.60;99.90
32614;DHT22;19031;51.400;6.770;2024-02-14T08:43:28;10.70;99.90
32614;DHT22;19031;51.400;6.770;2024-02-14T08:45:54;10.70;99.90
32614;DHT22;19031;51.400;6.770;2024-02-14T08:48:21;10.70;99.90
32614;DHT22;19031;51.400;6.770;2024-02-14T08:50:46;10.70;99.90
32614;DHT22;19031;51.400;6.770;2024-02-14T08:53:12;10.70;99.90
32614;DHT22;19031;51.400;6.770;2024-02-14T08:55:39;10.70;99.90
32614;DHT22;19031;51.400;6.770;2024-02-14T08:58:05;10.80;99.90
32614;DHT22;19031;51.400;6.770;2024-02-14T09:00:31;10.80;99.90
32614;DHT22;19031;51.400;6.770;2024-02-14T09:02:57;10.80;99.90
32614;DHT22;19031;51.400;6.770;2024-02-14T09:05:25;10.90;99.90
32614;DHT22;19031;51.400;6.770;2024-02-14T09:07:51;10.90;99.90
32614;DHT22;19031;51.400;6.770;2024-02-14T09:10:16;10.90;99.90
32614;DHT22;19031;51.400;6.770;2024-02-14T09:12:42;10.80;99.90
32614;DHT22;19031;51.400;6.770;2024-02-14T09:15:08;10.80;99.90
32614;DHT22;19031;51.400;6.770;2024-02-14T09:17:34;10.80;99.90
32614;DHT22;19031;51.400;6.770;2024-02-14T09:20:00;10.80;99.90
32614;DHT22;19031;51.400;6.770;2024-02-14T09:22:26;10.80;99.90
32614;DHT22;19031;51.400;6.770;2024-02-14T09:24:51;10.90;99.90
32614;DHT22;19031;51.400;6.770;2024-02-14T09:27:17;10.90;99.90
32614;DHT22;19031;51.400;6.770;2024-02-14T09:29:43;10.90;99.90
32614;DHT22;19031;51.400;6.770;2024-02-14T09:32:08;11.00;99.90
32614;DHT22;19031;51.400;6.770;2024-02-14T09:34:34;10.90;99.90
32614;DHT22;19031;51.400;6.770;2024-02-14T09:37:00;10.90;99.90
32614;DHT22;19031;51.400;6.770;2024-02-14T09:39:25;10.90;99.90
32614;DHT22;19031;51.400;6.770;2024-02-14T09:41:52;11.00;99.90
32614;DHT22;19031;51.400;6.770;2024-02-14T09:44:20;11.10;99.90
32614;DHT22;19031;51.400;6.770;2024-02-14T09:46:47;11.20;99.90
32614;DHT22;19031;51.400;6.770;2024-02-14T09:49:16;11.30;99.90
32614;DHT22;19031;51.400;6.770;2024-02-14T09:51:43;11.40;99.90
32614;DHT22;19031;51.400;6.770;2024-02-14T09:54:10;11.30;99.90
32614;DHT22;19031;51.400;6.770;2024-02-14T09:56:36;11.50;99.90
32614;DHT22;19031;51.400;6.770;2024-02-14T09:59:02;11.50;99.90
32614;DHT22;19031;51.400;6.770;2024-02-14T10:01:28;11.60;99.90
32614;DHT22;19031;51.400;6.770;2024-02-14T10:10:39;11.60;99.90
32614;DHT22;19031;51.400;6.770;2024-02-14T10:13:05;11.70;99.90
32614;DHT22;19031;51.400;6.770;2024-02-14T10:15:31;11.70;99.90
32614;DHT22;19031;51.400;6.770;2024-02-14T10:18:01;11.80;99.90
32614;DHT22;19031;51.400;6.770;2024-02-14T10:20:27;11.90;99.90
32614;DHT22;19031;51.400;6.770;2024-02-14T10:23:00;11.80;99.90
32614;DHT22;19031;51.400;6.770;2024-02-14T10:25:26;11.80;99.90
32614;DHT22;19031;51.400;6.770;2024-02-14T10:27:52;11.80;99.90
32614;DHT22;19031;51.400;6.770;2024-02-14T10:30:17;11.80;99.90
32614;DHT22;19031;51.400;6.770;2024-02-14T10:32:43;11.90;99.90
32614;DHT22;19031;51.400;6.770;2024-02-14T10:35:14;11.80;99.90
32614;DHT22;19031;51.400;6.770;2024-02-14T10:37:40;11.90;99.90
32614;DHT22;19031;51.400;6.770;2024-02-14T10:40:06;11.80;99.90
32614;DHT22;19031;51.400;6.770;2024-02-14T10:42:34;11.90;99.90
32614;DHT22;19031;51.400;6.770;2024-02-14T10:45:03;12.00;99.90
32614;DHT22;19031;51.400;6.770;2024-02-14T10:47:36;12.00;99.90
32614;DHT22;19031;51.400;6.770;2024-02-14T10:50:06;12.10;99.90
32614;DHT22;19031;51.400;6.770;2024-02-14T10:52:35;12.30;99.90
32614;DHT22;19031;51.400;6.770;2024-02-14T10:55:05;12.40;99.90
32614;DHT22;19031;51.400;6.770;2024-02-14T10:57:31;12.40;99.90
32614;DHT22;19031;51.400;6.770;2024-02-14T10:59:59;12.50;99.90
32614;DHT22;19031;51.400;6.770;2024-02-14T11:02:26;12.40;99.90
32614;DHT22;19031;51.400;6.770;2024-02-14T11:04:56;12.50;99.90
32614;DHT22;19031;51.400;6.770;2024-02-14T11:07:22;12.50;99.90
32614;DHT22;19031;51.400;6.770;2024-02-14T11:10:06;12.40;99.90
32614;DHT22;19031;51.400;6.770;2024-02-14T11:12:36;12.50;99.90
32614;DHT22;19031;51.400;6.770;2024-02-14T11:15:21;12.60;99.90
32614;DHT22;19031;51.400;6.770;2024-02-14T11:17:47;12.60;99.90
32614;DHT22;19031;51.400;6.770;2024-02-14T11:20:21;12.60;99.90
32614;DHT22;19031;51.400;6.770;2024-02-14T11:23:06;12.50;99.90
32614;DHT22;19031;51.400;6.770;2024-02-14T11:25:36;12.60;99.90
32614;DHT22;19031;51.400;6.770;2024-02-14T11:30:40;12.60;99.90
32614;DHT22;19031;51.400;6.770;2024-02-14T11:33:15;12.60;99.90
32614;DHT22;19031;51.400;6.770;2024-02-14T11:35:41;12.80;99.90
32614;DHT22;19031;51.400;6.770;2024-02-14T11:38:08;12.70;99.90
32614;DHT22;19031;51.400;6.770;2024-02-14T11:40:37;12.80;99.90
32614;DHT22;19031;51.400;6.770;2024-02-14T11:43:19;12.80;99.90
32614;DHT22;19031;51.400;6.770;2024-02-14T11:45:46;12.90;99.90
32614;DHT22;19031;51.400;6.770;2024-02-14T11:48:15;12.90;99.90
32614;DHT22;19031;51.400;6.770;2024-02-14T11:50:43;13.00;99.90
32614;DHT22;19031;51.400;6.770;2024-02-14T11:53:10;13.00;99.90
32614;DHT22;19031;51.400;6.770;2024-02-14T11:55:37;13.10;99.90
32614;DHT22;19031;51.400;6.770;2024-02-14T11:58:10;13.10;99.90
32614;DHT22;19031;51.400;6.770;2024-02-14T12:00:38;13.10;99.90
32614;DHT22;19031;51.400;6.770;2024-02-14T12:03:07;13.00;99.90
32614;DHT22;19031;51.400;6.770;2024-02-14T12:05:34;13.00;99.90
32614;DHT22;19031;51.400;6.770;2024-02-14T12:08:00;13.10;99.90
32614;DHT22;19031;51.400;6.770;2024-02-14T12:10:26;13.20;99.90
32614;DHT22;19031;51.400;6.770;2024-02-14T12:12:52;13.20;99.90
32614;DHT22;19031;51.400;6.770;2024-02-14T12:15:17;13.10;99.90
32614;DHT22;19031;51.400;6.770;2024-02-14T12:17:45;12.90;99.90
32614;DHT22;19031;51.400;6.770;2024-02-14T12:20:12;12.80;99.90
32614;DHT22;19031;51.400;6.770;2024-02-14T12:22:42;12.80;99.90
32614;DHT22;19031;51.400;6.770;2024-02-14T12:25:08;12.70;99.90
32614;DHT22;19031;51.400;6.770;2024-02-14T12:27:36;12.70;99.90
32614;DHT22;19031;51.400;6.770;2024-02-14T12:30:09;12.70;99.90
32614;DHT22;19031;51.400;6.770;2024-02-14T12:32:35;12.70;99.90
32614;DHT22;19031;51.400;6.770;2024-02-14T12:35:01;12.80;99.90
32614;DHT22;19031;51.400;6.770;2024-02-14T12:37:26;12.70;99.90
32614;DHT22;19031;51.400;6.770;2024-02-14T12:39:52;12.70;99.90
32614;DHT22;19031;51.400;6.770;2024-02-14T12:42:19;12.50;99.90
32614;DHT22;19031;51.400;6.770;2024-02-14T12:44:50;12.50;99.90
32614;DHT22;19031;51.400;6.770;2024-02-14T12:47:17;12.60;99.90
32614;DHT22;19031;51.400;6.770;2024-02-14T12:49:43;12.60;99.90
32614;DHT22;19031;51.400;6.770;2024-02-14T12:52:08;12.40;99.90
32614;DHT22;19031;51.400;6.770;2024-02-14T12:54:34;12.50;99.90
32614;DHT22;19031;51.400;6.770;2024-02-14T12:56:59;12.40;99.90
32614;DHT22;19031;51.400;6.770;2024-02-14T12:59:26;12.40;99.90
32614;DHT22;19031;51.400;6.770;2024-02-14T13:01:52;12.40;99.90
32614;DHT22;19031;51.400;6.770;2024-02-14T13:04:17;12.50;99.90
32614;DHT22;19031;51.400;6.770;2024-02-14T13:06:43;12.40;99.90
32614;DHT22;19031;51.400;6.770;2024-02-14T13:09:08;12.40;99.90
32614;DHT22;19031;51.400;6.770;2024-02-14T13:11:34;12.50;99.90
32614;DHT22;19031;51.400;6.770;2024-02-14T13:13:59;12.60;99.90
32614;DHT22;19031;51.400;6.770;2024-02-14T13:16:25;12.60;99.90
32614;DHT22;19031;51.400;6.770;2024-02-14T13:18:50;12.60;99.90
32614;DHT22;19031;51.400;6.770;2024-02-14T13:21:18;12.50;99.90
32614;DHT22;19031;51.400;6.770;2024-02-14T13:23:44;12.50;99.90
32614;DHT22;19031;51.400;6.770;2024-02-14T13:26:09;12.60;99.90
32614;DHT22;19031;51.400;6.770;2024-02-14T13:28:35;12.70;99.90
32614;DHT22;19031;51.400;6.770;2024-02-14T13:31:00;12.70;99.90
32614;DHT22;19031;51.400;6.770;2024-02-14T13:33:26;12.70;99.90
32614;DHT22;19031;51.400;6.770;2024-02-14T13:35:52;12.80;99.90
32614;DHT22;19031;51.400;6.770;2024-02-14T13:38:17;12.70;99.90
32614;DHT22;19031;51.400;6.770;2024-02-14T13:40:43;12.90;99.90
32614;DHT22;19031;51.400;6.770;2024-02-14T13:43:09;12.80;99.90
32614;DHT22;19031;51.400;6.770;2024-02-14T13:45:44;12.80;99.90
32614;DHT22;19031;51.400;6.770;2024-02-14T13:48:10;12.80;99.90
32614;DHT22;19031;51.400;6.770;2024-02-14T13:50:36;12.90;99.90
32614;DHT22;19031;51.400;6.770;2024-02-14T13:53:03;12.90;99.90
32614;DHT22;19031;51.400;6.770;2024-02-14T13:55:29;12.90;99.90
32614;DHT22;19031;51.400;6.770;2024-02-14T13:57:55;12.90;99.90
32614;DHT22;19031;51.400;6.770;2024-02-14T14:00:20;12.90;99.90
32614;DHT22;19031;51.400;6.770;2024-02-14T14:02:46;12.80;99.90
32614;DHT22;19031;51.400;6.770;2024-02-14T14:05:11;12.70;99.90
32614;DHT22;19031;51.400;6.770;2024-02-14T14:07:40;12.70;99.90
32614;DHT22;19031;51.400;6.770;2024-02-14T14:10:08;12.70;99.90
32614;DHT22;19031;51.400;6.770;2024-02-14T14:12:34;12.50;99.90
32614;DHT22;19031;51.400;6.770;2024-02-14T14:15:00;12.60;99.90
32614;DHT22;19031;51.400;6.770;2024-02-14T14:17:26;12.50;99.90
32614;DHT22;19031;51.400;6.770;2024-02-14T14:19:53;12.50;99.90
32614;DHT22;19031;51.400;6.770;2024-02-14T14:22:19;12.50;99.90
32614;DHT22;19031;51.400;6.770;2024-02-14T14:24:44;12.60;99.90
32614;DHT22;19031;51.400;6.770;2024-02-14T14:27:10;12.50;99.90
32614;DHT22;19031;51.400;6.770;2024-02-14T14:29:42;12.50;99.90
32614;DHT22;19031;51.400;6.770;2024-02-14T14:32:08;12.50;99.90
32614;DHT22;19031;51.400;6.770;2024-02-14T14:34:34;12.40;99.90
32614;DHT22;19031;51.400;6.770;2024-02-14T14:37:00;12.40;99.90
32614;DHT22;19031;51.400;6.770;2024-02-14T14:39:26;12.40;99.90
32614;DHT22;19031;51.400;6.770;2024-02-14T14:41:52;12.40;99.90
32614;DHT22;19031;51.400;6.770;2024-02-14T14:44:19;12.30;99.90
32614;DHT22;19031;51.400;6.770;2024-02-14T14:46:44;12.30;99.90
32614;DHT22;19031;51.400;6.770;2024-02-14T14:49:10;12.30;99.90
32614;DHT22;19031;51.400;6.770;2024-02-14T14:51:36;12.20;99.90
32614;DHT22;19031;51.400;6.770;2024-02-14T14:54:03;12.20;99.90
32614;DHT22;19031;51.400;6.770;2024-02-14T14:56:29;12.30;99.90
32614;DHT22;19031;51.400;6.770;2024-02-14T14:58:55;12.20;99.90
32614;DHT22;19031;51.400;6.770;2024-02-14T15:01:21;12.20;99.90
32614;DHT22;19031;51.400;6.770;2024-02-14T15:03:46;12.20;99.90
32614;DHT22;19031;51.400;6.770;2024-02-14T15:06:12;12.10;99.90
32614;DHT22;19031;51.400;6.770;2024-02-14T15:08:40;12.10;99.90
32614;DHT22;19031;51.400;6.770;2024-02-14T15:11:07;12.10;99.90
32614;DHT22;19031;51.400;6.770;2024-02-14T15:13:33;12.10;99.90
32614;DHT22;19031;51.400;6.770;2024-02-14T15:15:59;12.10;99.90
32614;DHT22;19031;51.400;6.770;2024-02-14T15:18:26;12.10;99.90
32614;DHT22;19031;51.400;6.770;2024-02-14T15:20:51;12.00;99.90
32614;DHT22;19031;51.400;6.770;2024-02-14T15:23:17;12.00;99.90
32614;DHT22;19031;51.400;6.770;2024-02-14T15:25:43;12.00;99.90
32614;DHT22;19031;51.400;6.770;2024-02-14T15:28:09;12.10;99.90
32614;DHT22;19031;51.400;6.770;2024-02-14T15:30:43;12.00;99.90
32614;DHT22;19031;51.400;6.770;2024-02-14T15:33:27;12.00;99.90
32614;DHT22;19031;51.400;6.770;2024-02-14T15:35:56;12.00;99.90
32614;DHT22;19031;51.400;6.770;2024-02-14T15:38:23;12.00;99.90
32614;DHT22;19031;51.400;6.770;2024-02-14T15:40:51;12.00;99.90
32614;DHT22;19031;51.400;6.770;2024-02-14T15:43:23;12.00;99.90